Bria Airport


Codes: FEFR/BIV
Name: Bria Airport
City: Bria
Country: Central African Republic
Elevation: 1975 ft.
Wikipedia:

Photos at Bria Airport


   Photos courtesy of SpottingLog. You can add your own sightings and photos by signing up for a free trial today.



No photos found.

Weather at Bria Airport


Time (UTC)DescriptionTempratureWindCloud coverageVisibilityPressureHumidity
21-Feb-2024 03:00Overcast Clouds22°C4 mph, NE100%10000m1008hPa22%
21-Feb-2024 06:00Overcast Clouds23°C4 mph, NE100%10000m1009hPa21%
21-Feb-2024 09:00Overcast Clouds30°C4 mph, NE100%10000m1009hPa14%
21-Feb-2024 12:00Overcast Clouds42°C2 mph, E89%10000m1004hPa7%
21-Feb-2024 15:00Overcast Clouds40°C7 mph, E96%10000m1002hPa9%
21-Feb-2024 18:00Broken Clouds30°C4 mph, E74%10000m1004hPa16%
21-Feb-2024 21:00Broken Clouds27°C4 mph, NE61%10000m1005hPa19%
22-Feb-2024 00:00Broken Clouds24°C4 mph, N78%10000m1006hPa21%
22-Feb-2024 03:00Overcast Clouds21°C2 mph, NE100%10000m1006hPa24%
22-Feb-2024 06:00Overcast Clouds24°C4 mph, S99%10000m1009hPa22%
22-Feb-2024 09:00Overcast Clouds36°C7 mph, E98%10000m1007hPa12%
22-Feb-2024 12:00Overcast Clouds41°C4 mph, SE91%10000m1002hPa9%
22-Feb-2024 15:00Broken Clouds40°C9 mph, SE80%10000m1001hPa10%
22-Feb-2024 18:00Overcast Clouds32°C7 mph, SE90%10000m1004hPa16%
22-Feb-2024 21:00Overcast Clouds27°C2 mph, NW100%10000m1006hPa22%
23-Feb-2024 00:00Overcast Clouds27°C2 mph, NE100%10000m1005hPa22%
23-Feb-2024 03:00Overcast Clouds25°C2 mph, SE100%10000m1006hPa26%
23-Feb-2024 06:00Overcast Clouds28°C2 mph, NE99%10000m1009hPa24%
23-Feb-2024 09:00Overcast Clouds36°C9 mph, E91%10000m1008hPa13%
23-Feb-2024 12:00Overcast Clouds39°C9 mph, S95%10000m1004hPa13%
23-Feb-2024 15:00Overcast Clouds37°C7 mph, S100%10000m1002hPa19%
23-Feb-2024 18:00Overcast Clouds30°C4 mph, SW100%10000m1005hPa29%
23-Feb-2024 21:00Broken Clouds27°C0 mph, SW75%10000m1007hPa32%
24-Feb-2024 00:00Overcast Clouds26°C2 mph, S86%10000m1006hPa35%
24-Feb-2024 03:00Overcast Clouds26°C2 mph, S100%10000m1007hPa34%
24-Feb-2024 06:00Overcast Clouds28°C2 mph, SW100%10000m1010hPa32%
24-Feb-2024 09:00Overcast Clouds33°C0 mph, SW100%10000m1011hPa28%
24-Feb-2024 12:00Overcast Clouds39°C2 mph, S100%10000m1006hPa21%
24-Feb-2024 15:00Overcast Clouds37°C4 mph, S100%10000m1004hPa20%
24-Feb-2024 18:00Overcast Clouds29°C4 mph, SW100%10000m1007hPa39%
24-Feb-2024 21:00Overcast Clouds28°C4 mph, NW100%10000m1008hPa42%
25-Feb-2024 00:00Overcast Clouds28°C2 mph, N100%10000m1008hPa40%
25-Feb-2024 03:00Overcast Clouds26°C2 mph, S100%10000m1008hPa41%
25-Feb-2024 06:00Overcast Clouds27°C2 mph, S100%10000m1011hPa45%
25-Feb-2024 09:00Overcast Clouds34°C4 mph, SW100%10000m1011hPa29%
25-Feb-2024 12:00Overcast Clouds37°C4 mph, W100%10000m1007hPa22%
25-Feb-2024 15:00Overcast Clouds34°C4 mph, NW100%10000m1005hPa27%
25-Feb-2024 18:00Overcast Clouds28°C7 mph, S100%10000m1008hPa51%
25-Feb-2024 21:00Overcast Clouds25°C7 mph, S100%10000m1011hPa73%
26-Feb-2024 00:00Overcast Clouds23°C7 mph, SW100%10000m1010hPa80%